createdAt,value
2019-01-08T00:04:17.404Z,16.63
2019-01-08T00:09:22.485Z,13.27
2019-01-08T00:14:27.174Z,11.83
2019-01-08T00:19:31.874Z,13.40
2019-01-08T00:24:36.939Z,12.07
2019-01-08T00:29:41.660Z,11.08
2019-01-08T00:34:46.396Z,10.70
2019-01-08T00:39:51.054Z,11.10
2019-01-08T00:44:55.784Z,9.13
2019-01-08T00:50:00.505Z,8.87
2019-01-08T00:55:05.902Z,8.83
2019-01-08T01:00:11.387Z,8.37
2019-01-08T01:05:16.082Z,7.92
2019-01-08T01:10:20.825Z,9.10
2019-01-08T01:15:25.467Z,7.27
2019-01-08T01:20:30.184Z,9.70
2019-01-08T01:25:34.861Z,7.20
2019-01-08T01:30:39.574Z,7.77
2019-01-08T01:36:02.231Z,8.57
2019-01-08T01:41:06.945Z,8.83
2019-01-08T01:46:11.718Z,9.90
2019-01-08T01:51:16.432Z,8.77
2019-01-08T01:56:21.173Z,8.60
2019-01-08T02:01:25.872Z,7.67
2019-01-08T02:06:30.553Z,8.05
2019-01-08T02:11:35.228Z,7.80
2019-01-08T02:16:39.918Z,8.07
2019-01-08T02:21:44.681Z,8.63
2019-01-08T02:26:49.400Z,8.10
2019-01-08T02:31:54.088Z,9.10
2019-01-08T02:36:58.801Z,8.20
2019-01-08T02:42:04.383Z,9.07
2019-01-08T02:47:09.073Z,9.17
2019-01-08T02:52:13.776Z,7.30
2019-01-08T02:57:18.435Z,9.80
2019-01-08T03:02:23.218Z,8.57
2019-01-08T03:07:27.902Z,10.20
2019-01-08T03:12:32.588Z,8.73
2019-01-08T03:17:37.238Z,8.43
2019-01-08T03:22:41.933Z,7.23
2019-01-08T03:27:46.607Z,10.57
2019-01-08T03:32:51.604Z,7.70
2019-01-08T03:37:56.288Z,8.27
2019-01-08T03:43:01.450Z,6.70
2019-01-08T03:48:06.134Z,8.97
2019-01-08T03:53:10.822Z,7.33
2019-01-08T03:58:15.634Z,8.63
2019-01-08T04:03:20.352Z,8.03
2019-01-08T04:08:25.303Z,5.47
2019-01-08T04:13:30.044Z,7.60
2019-01-08T04:18:34.722Z,5.70
2019-01-08T04:23:39.426Z,8.20
2019-01-08T04:28:44.182Z,5.50
2019-01-08T04:33:48.864Z,7.43
2019-01-08T04:38:53.760Z,8.87
2019-01-08T04:43:58.445Z,7.00
2019-01-08T04:49:04.621Z,5.67
2019-01-08T04:54:09.301Z,8.40
2019-01-08T04:59:14.010Z,9.23
2019-01-08T05:04:18.719Z,7.27
2019-01-08T05:09:23.466Z,11.83
2019-01-08T05:14:28.319Z,11.20
2019-01-08T05:19:33.033Z,11.40
2019-01-08T05:24:37.811Z,11.90
2019-01-08T05:29:42.833Z,9.77
2019-01-08T05:34:47.582Z,8.50
2019-01-08T05:39:52.313Z,7.47
2019-01-08T05:44:57.095Z,11.13
2019-01-08T05:50:02.006Z,10.77
2019-01-08T05:55:07.020Z,9.43
2019-01-08T06:00:16.377Z,9.28
2019-01-08T06:05:18.487Z,10.40
2019-01-08T06:10:23.885Z,9.63
2019-01-08T06:15:28.754Z,10.77
2019-01-08T06:20:33.515Z,10.63
2019-01-08T06:25:38.356Z,9.30
2019-01-08T06:30:43.193Z,9.27
2019-01-08T06:35:47.998Z,15.23
2019-01-08T06:40:57.514Z,8.90
2019-01-08T06:45:59.380Z,8.20
2019-01-08T06:51:04.518Z,13.95
2019-01-08T06:56:09.232Z,10.50
2019-01-08T07:01:13.916Z,9.03
2019-01-08T07:06:18.690Z,10.27
2019-01-08T07:11:23.380Z,9.37
2019-01-08T07:16:28.125Z,10.77
2019-01-08T07:21:32.811Z,9.53
2019-01-08T07:26:37.534Z,9.93
2019-01-08T07:31:42.222Z,11.77
2019-01-08T07:36:46.887Z,13.93
2019-01-08T07:41:51.863Z,13.47
2019-01-08T07:46:56.576Z,14.13
2019-01-08T07:52:01.245Z,15.43
2019-01-08T07:57:05.979Z,10.67
2019-01-08T08:02:10.671Z,9.03
2019-01-08T08:07:16.368Z,8.27
2019-01-08T08:12:21.125Z,12.63
2019-01-08T08:17:26.103Z,8.50
2019-01-08T08:22:30.870Z,13.30
2019-01-08T08:27:35.651Z,7.23
2019-01-08T08:32:40.383Z,8.07
2019-01-08T08:37:45.437Z,8.83
2019-01-08T08:42:50.451Z,8.03
2019-01-08T08:47:56.231Z,12.03
2019-01-08T08:53:01.060Z,9.43
2019-01-08T08:58:05.726Z,10.63
2019-01-08T09:03:10.387Z,5.17
2019-01-08T09:08:15.150Z,8.47
2019-01-08T09:13:19.884Z,10.13
2019-01-08T09:18:24.593Z,5.57
2019-01-08T09:23:29.396Z,13.40
2019-01-08T09:28:34.104Z,9.03
2019-01-08T09:33:38.835Z,8.73
2019-01-08T09:38:46.436Z,12.97
2019-01-08T09:43:52.515Z,6.03
2019-01-08T09:48:57.248Z,6.20
2019-01-08T09:54:01.955Z,8.50
2019-01-08T09:59:06.850Z,7.60
2019-01-08T10:04:12.584Z,10.73
2019-01-08T10:09:17.308Z,8.00
2019-01-08T10:14:21.991Z,8.60
2019-01-08T10:19:27.031Z,6.00
2019-01-08T10:24:31.805Z,8.47
2019-01-08T10:29:36.507Z,8.27
2019-01-08T10:34:41.512Z,7.53
2019-01-08T10:39:46.249Z,7.13
2019-01-08T10:44:50.962Z,8.40
2019-01-08T10:49:55.641Z,7.33
2019-01-08T10:55:00.373Z,5.60
2019-01-08T11:00:05.879Z,8.13
2019-01-08T11:05:10.657Z,7.10
2019-01-08T11:10:15.463Z,8.75
2019-01-08T11:15:20.163Z,4.45
2019-01-08T11:20:24.930Z,3.87
2019-01-08T11:25:29.663Z,5.90
2019-01-08T11:30:34.371Z,5.17
2019-01-08T11:35:42.352Z,6.40
2019-01-08T11:40:45.430Z,6.67
2019-01-08T11:45:50.127Z,6.07
2019-01-08T11:50:54.855Z,2.67
2019-01-08T11:55:59.529Z,5.47
2019-01-08T12:01:04.423Z,3.10
2019-01-08T12:06:09.160Z,4.63
2019-01-08T12:11:14.725Z,5.40
2019-01-08T12:16:19.400Z,6.42
2019-01-08T12:21:24.079Z,5.70
2019-01-08T12:26:29.087Z,4.90
2019-01-08T12:31:33.872Z,6.87
2019-01-08T12:36:38.578Z,4.33
2019-01-08T12:41:43.316Z,5.70
2019-01-08T12:46:48.008Z,3.57
2019-01-08T12:51:53.680Z,5.33
2019-01-08T12:56:58.354Z,6.90
2019-01-08T13:02:03.052Z,5.47
2019-01-08T13:07:07.745Z,7.17
2019-01-08T13:12:12.419Z,6.70
2019-01-08T13:17:17.111Z,4.70
2019-01-08T13:22:21.780Z,8.33
2019-01-08T13:27:26.480Z,7.20
2019-01-08T13:32:31.269Z,6.43
2019-01-08T13:37:35.969Z,5.23
2019-01-08T13:42:40.658Z,9.03
2019-01-08T13:47:45.415Z,5.73
2019-01-08T13:52:50.131Z,7.50
2019-01-08T13:57:54.795Z,4.70
2019-01-08T14:02:59.486Z,5.67
2019-01-08T14:08:04.481Z,6.67
2019-01-08T14:13:09.157Z,4.43
2019-01-08T14:18:13.878Z,3.93
2019-01-08T14:23:18.575Z,4.07
2019-01-08T14:28:23.271Z,5.17
2019-01-08T14:33:28.023Z,4.83
2019-01-08T14:38:32.866Z,5.33
2019-01-08T14:43:37.588Z,4.57
2019-01-08T14:48:42.305Z,4.77
2019-01-08T14:53:46.995Z,5.13
2019-01-08T14:58:51.695Z,5.07
2019-01-08T15:03:57.478Z,2.60
2019-01-08T15:09:02.258Z,7.53
2019-01-08T15:14:07.027Z,4.57
2019-01-08T15:19:11.912Z,8.90
2019-01-08T15:24:16.741Z,10.45
2019-01-08T15:29:21.490Z,7.83
2019-01-08T15:34:26.227Z,5.23
2019-01-08T15:39:30.902Z,8.07
2019-01-08T15:44:35.978Z,8.47
2019-01-08T15:49:41.757Z,11.50
2019-01-08T15:54:46.456Z,17.37
2019-01-08T15:59:51.202Z,11.63
2019-01-08T16:04:55.917Z,16.90
2019-01-08T16:10:00.610Z,15.77
2019-01-08T16:15:05.692Z,15.50
2019-01-08T16:20:11.476Z,15.32
2019-01-08T16:25:16.287Z,11.22
2019-01-08T16:30:21.022Z,9.13
2019-01-08T16:35:25.756Z,5.10
2019-01-08T16:40:30.540Z,9.17
2019-01-08T16:45:35.312Z,7.67
2019-01-08T16:50:40.025Z,8.50
2019-01-08T16:55:44.812Z,19.03
2019-01-08T17:00:49.625Z,5.77
2019-01-08T17:05:54.340Z,3.97
2019-01-08T17:10:59.101Z,4.70
2019-01-08T17:16:04.552Z,7.97
2019-01-08T17:21:09.472Z,6.83
2019-01-08T17:26:14.460Z,9.83
2019-01-08T17:31:20.134Z,5.83
2019-01-08T17:36:25.131Z,7.13
2019-01-08T17:41:29.823Z,3.50
2019-01-08T17:46:34.893Z,3.87
2019-01-08T17:51:39.595Z,6.80
2019-01-08T17:56:44.432Z,5.87
2019-01-08T18:02:09.333Z,4.97
2019-01-08T18:07:14.407Z,2.37
2019-01-08T18:12:19.103Z,3.83
2019-01-08T18:17:24.699Z,5.53
2019-01-08T18:22:30.261Z,9.23
2019-01-08T18:27:34.943Z,3.17
2019-01-08T18:32:40.042Z,2.07
2019-01-08T18:37:44.731Z,3.73
2019-01-08T18:42:49.436Z,4.50
2019-01-08T18:47:54.176Z,2.83
2019-01-08T18:52:58.884Z,3.77
2019-01-08T18:58:04.507Z,2.03
2019-01-08T19:03:09.275Z,3.47
2019-01-08T19:08:14.344Z,2.47
2019-01-08T19:13:19.118Z,3.58
2019-01-08T19:18:24.128Z,2.57
2019-01-08T19:23:28.858Z,3.63
2019-01-08T19:28:33.750Z,2.13
2019-01-08T19:33:38.537Z,2.93
2019-01-08T19:38:43.378Z,1.63
2019-01-08T19:43:48.346Z,3.33
2019-01-08T19:48:53.150Z,2.23
2019-01-08T19:53:57.844Z,3.40
2019-01-08T19:59:02.967Z,4.42
2019-01-08T20:04:07.725Z,2.50
2019-01-08T20:09:12.425Z,5.23
2019-01-08T20:14:18.100Z,3.13
2019-01-08T20:19:22.792Z,1.77
2019-01-08T20:24:27.486Z,2.87
2019-01-08T20:29:32.194Z,1.33
2019-01-08T20:34:36.903Z,2.20
2019-01-08T20:39:41.623Z,1.80
2019-01-08T20:44:46.394Z,2.00
2019-01-08T20:49:51.079Z,3.53
2019-01-08T20:54:55.804Z,1.83
2019-01-08T21:00:00.563Z,3.90
2019-01-08T21:05:06.460Z,5.00
2019-01-08T21:10:11.314Z,2.47
2019-01-08T21:15:16.383Z,4.40
2019-01-08T21:20:21.086Z,4.00
2019-01-08T21:25:25.939Z,4.10
2019-01-08T21:30:30.738Z,2.27
2019-01-08T21:35:35.515Z,2.27
2019-01-08T21:40:40.183Z,2.07
2019-01-08T21:45:45.889Z,2.30
2019-01-08T21:50:50.689Z,2.93
2019-01-08T21:55:55.523Z,3.73
2019-01-08T22:01:00.217Z,1.97
2019-01-08T22:06:04.993Z,1.97
2019-01-08T22:11:09.722Z,1.57
2019-01-08T22:16:14.688Z,1.80
2019-01-08T22:21:19.386Z,2.58
2019-01-08T22:26:24.071Z,2.23
2019-01-08T22:31:28.793Z,2.27
2019-01-08T22:36:33.503Z,2.30
2019-01-08T22:41:38.274Z,2.40
2019-01-08T22:46:43.064Z,2.43
2019-01-08T22:51:47.768Z,2.40
2019-01-08T22:56:52.548Z,3.83
2019-01-08T23:01:57.321Z,2.17
2019-01-08T23:07:02.016Z,3.67
2019-01-08T23:12:06.800Z,1.60
2019-01-08T23:17:11.537Z,1.30
2019-01-08T23:22:16.380Z,2.25
2019-01-08T23:27:21.545Z,0.83
2019-01-08T23:32:26.249Z,1.03
2019-01-08T23:37:30.982Z,3.10
2019-01-08T23:42:35.833Z,1.53
2019-01-08T23:47:40.615Z,1.67
2019-01-08T23:53:15.787Z,3.03
2019-01-08T23:58:20.507Z,1.07
